Terminal Aerodrome Forecast
Issued by NWS

Home | Current Version | Previous Version | Text Only | Print | Product List | Glossary On
Versions: 1 2 3 4 5 6 7 8 9 10 11 12 13 14 15 16 17 18 19 20 21 22 23 24 25 26 27 28 29
000
FTUS43 KMKX 311032 AAC
TAFUES
TAF AMD
KUES 311032Z 3111/0106 32017G26KT 1SM -SHSN BKN015
     FM311300 35019G32KT P6SM BKN025
     FM311500 35024G37KT P6SM BKN035
     FM312100 35023G34KT P6SM SCT035
     FM010000 35016G24KT P6SM SKC=

USA.gov is the U.S. government's official web portal to all federal, state and local government web resources and services.